Latest Weather Observations for Tewantin

IDQ60801

Issued at 7:05 am EST Monday 24 November 2014 (issued every 30 minutes, with the page automatically refreshed every 10 minutes)

About weather observations | Map of weather stations | Latest weather observations for QLD | Other Formats
Station Details ID: 040908 Name: TEWANTIN RSL PARK Lat: -26.39 Lon: 153.04 Height: 6.4 m
Data from the previous 72 hours. | See also: Recent months at Tewantin
Date/Time
EST
Temp
°C
App
Temp
°C
Dew
Point
Rel
Hum
%
Delta-T
°C
Wind Press
QNH
hPa
Press
MSL
hPa
Rain
since 9 am
mm
Dir
 
Spd
km/h
Gust
km/h
Spd
kts
Gust
kts
24/07:00am 24.3 26.5 19.6 75 3.0 N 7 13 4 7 1018.0 1018.0 0.0
24/06:30am 23.9 26.9 20.8 83 2.0 NW 6 11 3 6 1018.0 1018.0 0.0
24/06:00am 22.9 26.7 21.0 89 1.2 NW 2 7 1 4 1017.8 1017.8 0.0
24/05:30am 21.4 25.4 20.6 95 0.5 CALM 0 6 0 3 1017.5 1017.5 0.0
24/05:00am 20.7 24.5 20.2 97 0.3 CALM 0 6 0 3 1017.6 1017.6 0.0
24/04:30am 21.1 24.0 20.6 97 0.3 NW 6 7 3 4 1017.3 1017.3 0.0
24/04:00am 21.1 24.3 20.4 96 0.5 WNW 4 9 2 5 1017.1 1017.1 0.0
24/03:30am 21.3 24.2 20.6 96 0.5 WNW 6 9 3 5 1016.9 1016.9 0.0
24/03:00am 21.4 24.1 20.7 96 0.5 NW 7 9 4 5 1016.6 1016.6 0.0
24/02:30am 21.4 24.3 20.6 95 0.5 WNW 6 7 3 4 1016.7 1016.7 0.0
24/02:00am 21.6 24.6 20.8 95 0.5 WNW 6 7 3 4 1016.8 1016.8 0.0
24/01:30am 21.6 24.9 20.8 95 0.5 NW 4 7 2 4 1016.8 1016.8 0.0
24/01:00am 21.8 24.8 20.8 94 0.6 NW 6 7 3 4 1017.0 1017.0 0.0
24/12:30am 21.9 26.0 20.7 93 0.8 CALM 0 0 0 0 1017.3 1017.3 0.0
24/12:00am 22.0 25.2 20.5 91 1.0 WNW 4 7 2 4 1017.3 1017.3 0.0
 
Date/Time
EST
Temp
°C
App
Temp
°C
Dew
Point
Rel
Hum
%
Delta-T
°C
Wind Press
QNH
hPa
Press
MSL
hPa
Rain
since 9 am
mm
Dir
 
Spd
km/h
Gust
km/h
Spd
kts
Gust
kts
23/11:30pm 22.3 25.2 20.6 90 1.1 NW 6 7 3 4 1017.2 1017.2 0.0
23/11:00pm 23.0 25.8 20.5 86 1.6 NW 6 9 3 5 1017.3 1017.3 0.0
23/10:30pm 23.7 26.1 20.8 84 1.9 N 9 13 5 7 1017.4 1017.4 0.0
23/10:00pm 23.7 25.1 20.4 82 2.1 N 13 17 7 9 1017.3 1017.3 0.0
23/09:30pm 23.9 26.3 20.8 83 2.0 N 9 15 5 8 1017.2 1017.2 0.0
23/09:00pm 23.7 25.5 20.4 82 2.1 N 11 17 6 9 1017.1 1017.1 0.0
23/08:30pm 23.9 25.7 20.4 81 2.3 N 11 15 6 8 1016.9 1016.9 0.0
23/08:00pm 24.1 25.1 20.2 79 2.5 N 15 20 8 11 1016.3 1016.3 0.0
23/07:30pm 24.2 26.0 21.1 83 2.0 N 13 20 7 11 1015.8 1015.8 0.0
23/07:00pm 24.4 25.5 21.3 83 2.0 N 17 22 9 12 1015.6 1015.6 0.0
23/06:30pm 24.5 25.7 21.4 83 2.0 N 17 26 9 14 1015.3 1015.3 0.0
23/06:00pm 24.8 25.7 21.5 82 2.2 NNE 19 30 10 16 1014.9 1014.9 0.0
23/05:30pm 25.1 25.2 21.2 79 2.6 NNE 22 32 12 17 1014.6 1014.6 0.0
23/05:00pm 25.5 25.0 21.4 78 2.7 NNE 26 35 14 19 1014.2 1014.2 0.0
23/04:30pm 25.7 25.2 20.7 74 3.3 NNE 24 35 13 19 1014.3 1014.3 0.0
23/04:00pm 26.1 24.9 20.9 73 3.4 NNE 28 37 15 20 1014.5 1014.5 0.0
23/03:30pm 26.6 25.4 19.2 64 4.8 NNE 24 35 13 19 1014.8 1014.8 0.0
23/03:00pm 26.9 25.2 19.8 65 4.6 NNE 28 41 15 22 1015.1 1015.1 0.0
23/02:30pm 26.5 25.3 20.1 68 4.2 NNE 26 39 14 21 1015.2 1015.2 0.0
23/02:00pm 26.9 26.4 20.7 69 4.1 NNE 24 35 13 19 1015.5 1015.5 0.0
23/01:30pm 26.6 25.1 19.5 65 4.6 NNE 26 33 14 18 1016.0 1016.0 0.0
23/01:00pm 26.7 25.4 19.8 66 4.5 NNE 26 33 14 18 1016.4 1016.4 0.0
23/12:30pm 26.7 25.1 19.1 63 4.9 NNE 26 37 14 20 1016.9 1016.9 0.0
23/12:00pm 26.9 26.5 19.3 63 4.9 NNE 20 32 11 17 1017.1 1017.1 0.0
23/11:30am 26.9 27.0 20.3 67 4.3 NNE 20 32 11 17 1017.4 1017.4 0.0
23/11:00am 26.5 25.6 19.9 67 4.3 NNE 24 30 13 16 1017.8 1017.8 0.0
23/10:30am 26.5 25.5 18.9 63 4.9 NNE 22 28 12 15 1017.9 1017.9 0.0
23/10:00am 27.1 27.4 19.7 64 4.8 NNE 17 24 9 13 1018.1 1018.1 0.0
23/09:30am 27.2 28.2 20.3 66 4.5 NNE 15 20 8 11 1018.3 1018.3 0.0
23/09:00am 26.3 27.6 20.2 69 4.0 NNE 13 19 7 10 1018.3 1018.3 0.0
23/08:30am 26.0 26.6 19.4 67 4.3 N 15 24 8 13 1018.2 1018.2 0.0
23/08:00am 25.7 26.9 20.0 71 3.7 N 13 22 7 12 1018.2 1018.2 0.0
23/07:30am 25.2 27.4 21.1 78 2.7 NNW 11 19 6 10 1018.2 1018.2 0.0
23/07:00am 24.5 27.1 21.2 82 2.2 NNW 9 13 5 7 1018.1 1018.1 0.0
23/06:30am 24.5 27.9 21.6 84 1.9 NNW 6 11 3 6 1017.8 1017.8 0.0
23/06:00am 23.7 27.1 21.6 88 1.4 NNW 6 9 3 5 1017.5 1017.5 0.0
23/05:30am 23.3 26.0 21.4 89 1.3 N 9 13 5 7 1016.9 1016.9 0.0
23/05:00am 23.1 25.3 21.2 89 1.2 N 11 17 6 9 1016.4 1016.4 0.0
23/04:30am 23.0 25.7 21.4 91 1.1 N 9 13 5 7 1016.0 1016.0 0.0
23/04:00am 22.7 25.7 21.3 92 0.9 NNW 7 9 4 5 1015.7 1015.7 0.0
23/03:30am 22.9 25.7 21.5 92 0.9 N 9 13 5 7 1015.3 1015.3 0.0
23/03:00am 23.1 25.4 21.4 90 1.1 N 11 15 6 8 1015.3 1015.3 0.0
23/02:30am 23.4 25.3 21.3 88 1.4 N 13 17 7 9 1015.2 1015.2 0.0
23/02:00am 23.5 25.4 21.4 88 1.4 N 13 17 7 9 1015.2 1015.2 0.0
23/01:30am 23.6 26.4 21.5 88 1.4 N 9 15 5 8 1015.4 1015.4 0.0
23/01:00am 23.9 25.9 21.6 87 1.5 N 13 20 7 11 1015.5 1015.5 0.0
23/12:30am 24.1 25.9 21.8 87 1.5 N 15 20 8 11 1015.8 1015.8 0.0
23/12:00am 24.2 27.4 22.3 89 1.3 N 9 19 5 10 1016.0 1016.0 0.0
 
Date/Time
EST
Temp
°C
App
Temp
°C
Dew
Point
Rel
Hum
%
Delta-T
°C
Wind Press
QNH
hPa
Press
MSL
hPa
Rain
since 9 am
mm
Dir
 
Spd
km/h
Gust
km/h
Spd
kts
Gust
kts
22/11:30pm 24.4 27.2 22.3 88 1.4 N 11 15 6 8 1016.2 1016.2 0.0
22/11:00pm 24.3 26.9 22.6 90 1.1 N 13 17 7 9 1016.0 1016.0 0.0
22/10:30pm 24.1 26.7 22.0 88 1.4 N 11 17 6 9 1016.1 1016.1 0.0
22/10:00pm 24.3 27.2 22.4 89 1.3 N 11 17 6 9 1015.9 1015.9 0.0
22/09:30pm 24.4 27.2 22.3 88 1.4 N 11 15 6 8 1015.8 1015.8 0.0
22/09:00pm 24.6 27.8 22.3 87 1.5 N 9 13 5 7 1015.7 1015.7 0.0
22/08:30pm 24.9 27.5 22.0 84 1.9 N 11 17 6 9 1015.3 1015.3 0.0
22/08:00pm 24.7 27.4 22.2 86 1.7 N 11 15 6 8 1014.8 1014.8 0.0
22/07:30pm 24.9 26.8 22.0 84 1.9 NNE 15 24 8 13 1014.4 1014.4 0.0
22/07:00pm 25.0 26.4 21.9 83 2.1 N 17 26 9 14 1013.8 1013.8 0.0
22/06:30pm 25.1 26.1 21.8 82 2.2 NNE 19 26 10 14 1013.4 1013.4 0.0
22/06:00pm 25.3 26.1 21.8 81 2.3 NNE 20 28 11 15 1013.0 1013.0 0.0
22/05:30pm 25.6 25.7 21.9 80 2.5 NNE 24 35 13 19 1012.7 1012.7 0.0
22/05:00pm 26.0 26.0 21.7 77 2.9 NNE 24 35 13 19 1012.2 1012.2 0.0
22/04:30pm 26.5 26.1 21.7 75 3.2 NNE 26 35 14 19 1012.0 1012.0 0.0
22/04:00pm 26.7 26.2 22.8 79 2.6 NNE 30 37 16 20 1011.9 1011.9 0.0
22/03:30pm 26.9 25.6 22.1 75 3.2 NNE 32 44 17 24 1012.0 1012.0 0.0
22/03:00pm 26.9 25.6 22.1 75 3.2 NNE 32 46 17 25 1012.3 1012.3 0.0
22/02:30pm 27.2 26.6 22.6 76 3.1 NNE 30 41 16 22 1012.5 1012.5 0.0
22/02:00pm 27.2 26.1 22.4 75 3.2 NNE 32 50 17 27 1012.8 1012.8 0.0
22/01:52pm 27.0 26.2 22.4 76 3.1 NNE 30 50 16 27 1012.9 1012.9 0.0
22/01:30pm 27.4 26.4 22.6 75 3.2 NE 32 44 17 24 1013.1 1013.1 0.0
22/01:00pm 27.3 26.5 22.3 74 3.4 NNE 30 44 16 24 1013.3 1013.3 0.0
22/12:30pm 27.4 27.1 22.6 75 3.2 NNE 28 39 15 21 1013.7 1013.7 0.0
22/12:00pm 27.7 28.2 22.6 74 3.5 NNE 24 37 13 20 1014.1 1014.1 0.0
22/11:30am 27.7 28.4 22.9 75 3.3 NNE 24 35 13 19 1014.6 1014.6 0.0
22/11:00am 27.2 28.2 22.8 77 3.0 NNE 22 35 12 19 1015.0 1015.0 0.0
22/10:30am 27.3 29.1 23.3 79 2.7 NNE 19 28 10 15 1015.5 1015.5 0.0
22/10:00am 27.8 30.3 22.5 73 3.6 N 13 22 7 12 1015.6 1015.6 0.0
22/09:30am 28.2 29.5 21.7 68 4.4 N 17 20 9 11 1015.7 1015.7 0.0
22/09:00am 28.2 30.6 22.2 70 4.0 NNW 13 32 7 17 1015.6 1015.6 0.0
22/08:30am 27.6 30.5 23.2 77 3.0 N 13 20 7 11 1015.7 1015.7 0.0
22/08:00am 25.5 28.8 23.2 87 1.6 N 11 15 6 8 1015.9 1015.9 0.0
22/07:30am 24.8 27.6 23.0 90 1.2 N 13 17 7 9 1015.7 1015.7 0.0
22/07:00am 24.6 27.7 22.8 90 1.2 N 11 17 6 9 1015.8 1015.8 0.0
22/06:30am 24.5 27.5 22.7 90 1.2 N 11 13 6 7 1015.5 1015.5 0.0
22/06:00am 24.5 28.6 22.9 91 1.1 NNW 6 9 3 5 1015.2 1015.2 0.0
22/05:30am 24.4 28.0 23.0 92 0.9 N 9 17 5 9 1014.6 1014.6 0.0
22/05:00am 24.1 26.6 23.1 94 0.7 N 15 22 8 12 1014.1 1014.1 0.0
22/04:30am 23.9 27.4 22.9 94 0.7 N 9 15 5 8 1014.3 1014.3 0.0
22/04:00am 23.9 27.3 22.7 93 0.8 NNW 9 13 5 7 1014.0 1014.0 0.0
22/03:30am 23.9 26.9 22.7 93 0.8 NNW 11 20 6 11 1013.5 1013.5 0.0
22/03:00am 23.8 26.9 22.8 94 0.7 N 11 15 6 8 1013.3 1013.3 0.0
22/02:30am 23.7 27.1 22.7 94 0.7 N 9 15 5 8 1013.1 1013.1 0.0
22/02:00am 23.9 27.8 22.9 94 0.7 N 7 13 4 7 1013.1 1013.1 0.0
22/01:30am 23.9 27.3 22.7 93 0.8 N 9 17 5 9 1013.0 1013.0 0.0
22/01:00am 23.7 27.4 22.5 93 0.8 N 7 11 4 6 1013.3 1013.3 0.0
22/12:30am 23.9 27.2 22.5 92 0.9 N 9 17 5 9 1013.5 1013.5 0.0
22/12:00am 23.9 27.6 22.5 92 0.9 N 7 13 4 7 1013.8 1013.8 0.0
 
Date/Time
EST
Temp
°C
App
Temp
°C
Dew
Point
Rel
Hum
%
Delta-T
°C
Wind Press
QNH
hPa
Press
MSL
hPa
Rain
since 9 am
mm
Dir
 
Spd
km/h
Gust
km/h
Spd
kts
Gust
kts
21/11:30pm 24.0 27.2 22.3 90 1.1 NNW 9 13 5 7 1014.3 1014.3 0.0
21/11:00pm 24.1 27.4 21.8 87 1.5 N 7 9 4 5 1014.7 1014.7 0.0
21/10:30pm 24.2 27.1 21.7 86 1.7 N 9 15 5 8 1014.5 1014.5 0.0
21/10:00pm 24.5 27.3 21.6 84 1.9 N 9 17 5 9 1014.7 1014.7 0.0
21/09:30pm 24.7 27.2 21.8 84 1.9 N 11 19 6 10 1014.5 1014.5 0.0
21/09:00pm 24.8 27.2 22.3 86 1.7 N 13 15 7 8 1014.0 1014.0 0.0
21/08:30pm 25.0 27.6 22.7 87 1.5 N 13 20 7 11 1013.6 1013.6 0.0
21/08:00pm 24.9 28.0 22.8 88 1.4 N 11 15 6 8 1013.6 1013.6 0.0
21/07:30pm 25.0 27.9 23.2 90 1.2 N 13 19 7 10 1013.3 1013.3 0.0
21/07:00pm 25.1 26.9 23.3 90 1.2 NNE 19 30 10 16 1012.7 1012.7 0.0
21/06:30pm 25.2 26.8 23.3 89 1.3 N 20 28 11 15 1012.7 1012.7 0.0
21/06:00pm 25.4 27.0 23.3 88 1.4 N 20 32 11 17 1012.3 1012.3 0.0
21/05:30pm 25.7 26.9 23.2 86 1.7 N 22 33 12 18 1012.0 1012.0 0.0
21/05:00pm 25.9 26.2 23.0 84 2.0 NNE 26 39 14 21 1011.8 1011.8 0.0
21/04:30pm 26.3 26.1 23.4 84 2.0 NNE 30 43 16 23 1011.5 1011.5 0.0
21/04:00pm 26.4 26.0 23.1 82 2.2 NNE 30 43 16 23 1011.4 1011.4 0.0
21/03:30pm 26.6 26.1 22.9 80 2.5 NNE 30 46 16 25 1011.6 1011.6 0.0
21/03:00pm 27.2 27.6 23.2 79 2.7 NNE 26 37 14 20 1011.7 1011.7 0.0
21/02:30pm 27.2 26.7 22.8 77 3.0 NNE 30 39 16 21 1011.9 1011.9 0.0
21/02:00pm 27.1 26.7 22.3 75 3.2 NNE 28 43 15 23 1012.3 1012.3 0.0
21/01:30pm 27.1 26.5 22.7 77 3.0 NNE 30 41 16 22 1012.9 1012.9 0.0
21/01:00pm 26.7 25.8 22.1 76 3.1 NNE 30 44 16 24 1013.3 1013.3 0.0
21/12:42pm 27.0 26.5 22.2 75 3.2 NNE 28 46 15 25 1013.5 1013.5 0.0
21/12:30pm 26.8 25.2 21.5 72 3.5 NNE 32 43 17 23 1013.7 1013.7 0.0
21/12:00pm 27.2 27.3 22.6 76 3.1 N 26 37 14 20 1014.3 1014.3 0.0
21/11:30am 26.5 26.8 22.3 78 2.8 N 24 35 13 19 1014.7 1014.7 0.0
21/11:00am 26.9 26.8 22.3 76 3.1 N 26 32 14 17 1015.1 1015.1 0.0
21/10:30am 26.7 27.4 21.5 73 3.5 NNE 20 28 11 15 1015.4 1015.4 0.0
21/10:00am 27.6 29.6 23.0 76 3.1 NNE 17 24 9 13 1015.8 1015.8 0.0
21/09:30am 27.4 29.6 21.9 72 3.7 N 13 20 7 11 1016.0 1016.0 0.0
21/09:00am 27.9 29.7 21.2 67 4.5 N 13 20 7 11 1016.1 1016.1 0.0
21/08:30am 26.6 28.3 21.6 74 3.3 N 15 22 8 12 1016.2 1016.2 0.0
21/08:00am 26.3 28.0 21.7 76 3.1 N 15 20 8 11 1016.4 1016.4 0.0
21/07:30am 25.6 27.0 21.9 80 2.5 N 17 24 9 13 1016.6 1016.6 0.0

Other Formats:

Comma delimited format used in spreadsheet applications
http://www.bom.gov.au/fwo/IDQ60801/IDQ60801.94570.axf

JavaScript Object Notation format (JSON) in row-major order
http://www.bom.gov.au/fwo/IDQ60801/IDQ60801.94570.json